Time;durP1;ratioP1;P1;durP2;ratioP2;P2;SDS_P1;SDS_P2;PMS_P1;PMS_P2;Temp;Humidity;BMP_temperature;BMP_pressure;BME280_temperature;BME280_humidity;BME280_pressure;Samples;Min_cycle;Max_cycle;Signal;HPM_P1;HPM_P2
2022/12/22 03:27:12;;;;;;;;;;;;;;;9.51;100.00;100094.34;5094159;28;20052;-50
2022/12/22 03:29:40;;;;;;;8.38;4.70;;;;;;;9.52;100.00;100099.50;5092006;28;20332;-55
2022/12/22 03:32:07;;;;;;;7.40;5.00;;;;;;;9.51;100.00;100089.72;5108930;28;20044;-54
2022/12/22 03:34:35;;;;;;;9.00;5.13;;;;;;;9.51;100.00;100092.44;5092028;28;20106;-54
2022/12/22 03:37:02;;;;;;;8.82;5.10;;;;;;;9.51;100.00;100089.72;5093377;28;20086;-54
2022/12/22 03:39:30;;;;;;;8.63;5.10;;;;;;;9.52;100.00;100087.81;5093488;28;20082;-52
2022/12/22 03:47:30;;;;;;;7.07;5.05;;;;;;;9.50;100.00;100077.22;5092242;28;20032;-52
2022/12/22 03:49:58;;;;;;;8.02;5.28;;;;;;;9.51;100.00;100075.31;5092798;28;20040;-51
2022/12/22 03:52:26;;;;;;;8.57;5.43;;;;;;;9.50;100.00;100077.22;5092985;28;20067;-51
2022/12/22 03:54:53;;;;;;;8.00;5.70;;;;;;;9.50;100.00;100065.50;5093499;28;20048;-51
2022/12/22 03:57:21;;;;;;;8.02;5.43;;;;;;;9.48;100.00;100067.72;5093470;28;20442;-55
2022/12/22 03:59:48;;;;;;;7.10;5.25;;;;;;;9.47;100.00;100061.44;5090890;28;20050;-52
2022/12/22 04:02:16;;;;;;;8.07;4.95;;;;;;;9.47;100.00;100066.06;5082392;28;20040;-50
2022/12/22 04:04:44;;;;;;;6.75;4.75;;;;;;;9.46;100.00;100053.59;5091714;28;20113;-52
2022/12/22 04:07:11;;;;;;;7.95;4.68;;;;;;;9.45;100.00;100052.75;5092130;28;20032;-55
2022/12/22 04:12:53;;;;;;;6.40;4.75;;;;;;;9.46;100.00;100042.72;5094119;28;20040;-54
2022/12/22 04:15:12;;;;;;;;;;;;;;;9.46;100.00;100038.09;5093885;28;20483;-53
2022/12/22 04:17:40;;;;;;;6.57;4.35;;;;;;;9.45;100.00;100041.06;5092673;28;20297;-54
2022/12/22 04:20:08;;;;;;;7.72;6.10;;;;;;;9.38;100.00;100025.88;5092381;28;20048;-54
2022/12/22 04:22:36;;;;;;;9.05;7.20;;;;;;;9.35;100.00;100026.44;5093040;28;20032;-51
2022/12/22 04:25:04;;;;;;;9.98;8.35;;;;;;;9.35;100.00;100029.16;5091521;28;20060;-53
2022/12/22 04:27:31;;;;;;;11.40;8.50;;;;;;;9.34;100.00;100030.25;5091800;28;20032;-55
2022/12/22 04:29:59;;;;;;;10.98;8.63;;;;;;;9.34;100.00;100024.81;5091449;28;20036;-53
2022/12/22 04:32:27;;;;;;;10.88;9.05;;;;;;;9.34;100.00;100030.25;5092804;28;20041;-52
2022/12/22 04:34:54;;;;;;;10.88;8.50;;;;;;;9.37;100.00;100037.03;5091232;28;20047;-53
2022/12/22 04:37:22;;;;;;;11.15;7.70;;;;;;;9.39;100.00;100034.84;5092544;28;20093;-54
2022/12/22 04:39:49;;;;;;;11.13;8.23;;;;;;;9.39;100.00;100040.28;5092506;28;20044;-52
2022/12/22 04:42:17;;;;;;;9.48;7.90;;;;;;;9.43;100.00;100054.13;5092703;28;20036;-54
2022/12/22 04:44:45;;;;;;;10.32;8.13;;;;;;;9.44;100.00;100062.00;5090524;28;20048;-53
2022/12/22 04:47:12;;;;;;;9.40;7.50;;;;;;;9.44;100.00;100058.50;5092656;28;20043;-56
2022/12/22 04:49:40;;;;;;;10.05;7.88;;;;;;;9.44;100.00;100062.00;5092372;28;20036;-54
2022/12/22 04:52:08;;;;;;;9.73;7.57;;;;;;;9.45;100.00;100051.94;5092263;28;20055;-56
2022/12/22 04:54:35;;;;;;;8.80;6.88;;;;;;;9.47;100.00;100055.19;5091087;28;20052;-53
2022/12/22 04:57:03;;;;;;;9.40;7.68;;;;;;;9.47;100.00;100050.56;5091018;28;20483;-54
2022/12/22 04:59:31;;;;;;;9.50;7.85;;;;;;;9.47;100.00;100057.91;5092280;28;20032;-55
2022/12/22 05:01:58;;;;;;;9.18;7.32;;;;;;;9.46;100.00;100050.88;5092460;28;20044;-53
2022/12/22 05:04:26;;;;;;;9.57;7.78;;;;;;;9.45;100.00;100054.66;5092741;28;20119;-53
2022/12/22 05:06:54;;;;;;;9.70;7.57;;;;;;;9.43;100.00;100060.41;5092135;28;20525;-55
2022/12/22 05:09:21;;;;;;;10.30;7.88;;;;;;;9.42;100.00;100063.38;5091698;28;20048;-51
2022/12/22 05:11:49;;;;;;;10.82;8.25;;;;;;;9.43;100.00;100067.72;5090333;28;20521;-54
2022/12/22 05:14:17;;;;;;;11.40;8.27;;;;;;;9.43;100.00;100070.44;4385494;28;10000701;-53
2022/12/22 05:16:44;;;;;;;10.23;8.05;;;;;;;9.43;100.00;100070.44;5082118;28;20055;-53
2022/12/22 05:19:12;;;;;;;10.48;8.32;;;;;;;9.44;100.00;100067.44;5091787;28;20119;-54
2022/12/22 05:21:40;;;;;;;10.50;8.18;;;;;;;9.44;100.00;100062.00;5091798;28;20085;-56
2022/12/22 05:24:08;;;;;;;9.05;7.47;;;;;;;9.44;100.00;100062.00;5074934;28;20036;-54
2022/12/22 05:26:35;;;;;;;10.45;8.27;;;;;;;9.44;100.00;100061.22;5093074;28;20413;-53
2022/12/22 05:29:03;;;;;;;10.30;8.02;;;;;;;9.46;100.00;100064.47;5092499;28;20048;-56
2022/12/22 05:31:30;;;;;;;10.80;8.57;;;;;;;9.46;100.00;100064.47;5092216;28;20486;-52
2022/12/22 05:33:58;;;;;;;10.15;8.25;;;;;;;9.45;100.00;100062.81;5091589;28;20089;-52
2022/12/22 05:36:26;;;;;;;11.38;7.78;;;;;;;9.45;100.00;100068.25;5092630;28;20056;-56
2022/12/22 05:38:53;;;;;;;9.65;7.85;;;;;;;9.45;100.00;100070.97;5092550;28;20063;-53
2022/12/22 05:41:21;;;;;;;10.98;8.27;;;;;;;9.44;100.00;100077.53;5092707;28;20047;-58
2022/12/22 05:43:48;;;;;;;9.93;8.02;;;;;;;9.43;100.00;100082.16;5093122;28;20131;-57
2022/12/22 05:46:16;;;;;;;12.02;8.63;;;;;;;9.43;100.00;100084.03;5091565;28;20130;-52
2022/12/22 05:48:44;;;;;;;9.63;7.78;;;;;;;9.44;100.00;100085.69;5090950;28;20052;-52
2022/12/22 05:51:11;;;;;;;10.13;7.43;;;;;;;9.44;100.00;100078.31;5090690;28;20059;-53
2022/12/22 05:53:39;;;;;;;10.35;8.15;;;;;;;9.44;100.00;100082.97;5092091;28;20051;-52
2022/12/22 05:56:07;;;;;;;12.70;9.30;;;;;;;9.40;100.00;100082.69;5090562;28;20521;-51
2022/12/22 05:58:37;;;;;;;10.15;8.80;;;;;;;9.37;100.00;100091.41;5072365;28;20081;-53
2022/12/22 06:01:05;;;;;;;10.95;9.32;;;;;;;9.35;100.00;100097.13;5090435;28;20053;-57
2022/12/22 06:03:33;;;;;;;11.55;9.77;;;;;;;9.31;100.00;100090.63;5073255;28;20046;-57
2022/12/22 06:06:01;;;;;;;11.85;8.60;;;;;;;9.34;100.00;100105.56;5084317;28;20593;-58
2022/12/22 06:08:29;;;;;;;10.18;8.02;;;;;;;9.35;100.00;100107.19;5090586;28;20497;-55
2022/12/22 06:10:58;;;;;;;11.88;8.93;;;;;;;9.35;100.00;100112.63;5090776;28;20058;-52
2022/12/22 06:13:26;;;;;;;11.23;8.77;;;;;;;9.35;100.00;100113.41;5085950;28;20211;-56
2022/12/22 06:15:53;;;;;;;9.48;7.70;;;;;;;9.36;100.00;100119.69;5090545;28;20044;-59
2022/12/22 06:18:21;;;;;;;11.18;7.65;;;;;;;9.36;100.00;100122.41;5091667;28;20151;-59
2022/12/22 06:20:52;;;;;;;9.68;7.30;;;;;;;9.37;100.00;100126.75;5091402;28;20072;-55
2022/12/22 06:23:20;;;;;;;9.43;7.30;;;;;;;9.37;100.00;100138.44;5081235;28;20443;-58
2022/12/22 06:25:56;;;;;;;11.43;7.65;;;;;;;9.36;100.00;100144.97;5088110;28;20066;-57
2022/12/22 06:28:24;;;;;;;10.13;7.72;;;;;;;9.37;100.00;100138.44;5089117;28;20037;-55
2022/12/22 06:30:52;;;;;;;9.93;7.45;;;;;;;9.36;100.00;100144.16;5088432;28;20047;-58
2022/12/22 06:33:20;;;;;;;9.25;7.15;;;;;;;9.38;100.00;100153.69;5106956;28;20046;-56
2022/12/22 06:35:47;;;;;;;11.05;7.05;;;;;;;9.37;100.00;100143.88;5091209;28;20048;-58
2022/12/22 06:38:25;;;;;;;9.77;7.57;;;;;;;9.37;100.00;100143.06;5089303;28;20115;-58
2022/12/22 06:40:53;;;;;;;9.63;7.53;;;;;;;9.36;100.00;100153.13;5089538;28;20052;-58
2022/12/22 06:43:20;;;;;;;11.80;9.43;;;;;;;9.37;100.00;100160.19;5083510;28;20070;-58
2022/12/22 06:45:48;;;;;;;13.30;11.43;;;;;;;9.35;100.00;100175.94;5088910;28;20445;-59
2022/12/22 06:48:16;;;;;;;13.38;10.45;;;;;;;9.33;100.00;100175.44;5091086;28;20066;-55
2022/12/22 06:50:43;;;;;;;14.05;11.98;;;;;;;9.33;100.00;100178.16;5089548;28;20516;-57
2022/12/22 06:53:11;;;;;;;17.67;13.35;;;;;;;9.31;100.00;100185.78;5090864;28;20054;-53
2022/12/22 06:55:39;;;;;;;17.83;14.95;;;;;;;9.29;100.00;100185.22;5088550;28;20044;-57
2022/12/22 06:58:07;;;;;;;18.50;15.07;;;;;;;9.28;100.00;100183.59;5090927;28;20510;-57
2022/12/22 07:00:34;;;;;;;18.33;14.80;;;;;;;9.29;100.00;100184.41;5091117;28;20046;-57
2022/12/22 07:03:02;;;;;;;17.70;15.05;;;;;;;9.29;100.00;100193.38;5094085;28;20093;-57
2022/12/22 07:05:30;;;;;;;21.70;17.05;;;;;;;9.27;100.00;100203.72;5093563;28;20047;-58
2022/12/22 07:07:58;;;;;;;20.83;17.67;;;;;;;9.27;100.00;100209.16;5090633;28;20067;-57
2022/12/22 07:13:22;;;;;;;22.20;17.67;;;;;;;9.27;100.00;100220.03;5086692;28;20152;-54
2022/12/22 07:15:51;;;;;;;23.10;17.90;;;;;;;9.27;100.00;100219.22;5084660;28;20052;-56
2022/12/22 07:18:29;;;;;;;26.13;19.15;;;;;;;9.27;100.00;100224.66;5092717;28;20109;-53
2022/12/22 07:20:57;;;;;;;23.45;18.65;;;;;;;9.26;100.00;100229.28;5084225;28;20044;-57
2022/12/22 07:23:25;;;;;;;25.90;19.90;;;;;;;9.26;100.00;100229.28;5080999;28;20043;-59
2022/12/22 07:25:53;;;;;;;27.88;21.75;;;;;;;9.23;100.00;100240.69;5089483;28;20051;-55
2022/12/22 07:28:22;;;;;;;27.85;21.38;;;;;;;9.20;100.00;100224.91;5089288;28;20081;-57
2022/12/22 07:30:51;;;;;;;29.88;21.65;;;;;;;9.24;100.00;100226.00;5087612;28;20110;-59
2022/12/22 07:33:19;;;;;;;28.17;22.02;;;;;;;9.23;100.00;100229.00;5072433;28;20047;-55
2022/12/22 07:35:46;;;;;;;32.35;21.75;;;;;;;9.20;100.00;100230.34;5090224;28;20048;-54
2022/12/22 07:38:14;;;;;;;28.38;20.40;;;;;;;9.22;100.00;100228.19;5091323;28;20058;-58
2022/12/22 07:40:41;;;;;;;28.20;20.60;;;;;;;9.24;100.00;100219.78;5090949;28;20046;-57
2022/12/22 07:43:13;;;;;;;30.40;21.52;;;;;;;9.24;100.00;100225.22;5084460;28;20070;-53
2022/12/22 07:45:40;;;;;;;32.92;22.63;;;;;;;9.24;100.00;100242.31;5090199;28;20706;-60
2022/12/22 07:50:23;;;;;;;31.48;22.30;;;;;;;9.23;100.00;100239.88;5089239;28;20032;-54
2022/12/22 07:51:01;;;;;;;30.27;21.60;;;;;;;9.23;100.00;100262.44;5090213;28;20233;-57
2022/12/22 07:53:29;;;;;;;30.80;21.50;;;;;;;9.25;100.00;100267.59;5090402;28;20054;-58
2022/12/22 07:56:00;;;;;;;30.88;23.33;;;;;;;9.22;100.00;100277.13;5072153;28;20048;-54
2022/12/22 07:58:27;;;;;;;34.80;23.92;;;;;;;9.18;100.00;100292.31;5089595;28;20071;-58
2022/12/22 08:00:59;;;;;;;31.85;23.42;;;;;;;9.17;100.00;100290.72;5095110;28;20036;-55
2022/12/22 08:03:27;;;;;;;37.60;27.63;;;;;;;9.11;100.00;100294.50;5092974;28;20066;-56
2022/12/22 08:05:55;;;;;;;35.88;25.42;;;;;;;9.08;100.00;100305.91;5092210;28;20044;-54
2022/12/22 08:08:23;;;;;;;33.17;23.65;;;;;;;9.06;100.00;100310.81;5071381;28;20040;-56
2022/12/22 08:10:50;;;;;;;35.13;23.65;;;;;;;9.07;100.00;100313.25;5079251;28;20055;-57
2022/12/22 08:13:19;;;;;;;34.13;24.02;;;;;;;9.21;100.00;100318.97;5093239;28;20043;-58
2022/12/22 08:15:47;;;;;;;35.50;24.27;;;;;;;9.14;100.00;100330.13;5092087;28;20458;-60
2022/12/22 08:18:14;;;;;;;36.83;26.35;;;;;;;9.11;100.00;100340.69;5075104;28;20410;-57
2022/12/22 08:20:50;;;;;;;35.40;24.45;;;;;;;9.07;100.00;100340.44;5092492;28;20040;-57
2022/12/22 08:23:18;;;;;;;35.70;24.27;;;;;;;9.07;100.00;100342.34;5074903;28;20387;-58
2022/12/22 08:25:49;;;;;;;32.45;23.98;;;;;;;9.06;100.00;100344.22;5074668;28;20494;-58
2022/12/22 08:28:17;;;;;;;32.88;23.73;;;;;;;9.04;100.00;100342.88;5091819;28;20047;-56
2022/12/22 08:30:46;;;;;;;35.67;23.38;;;;;;;9.03;100.00;100349.41;5092585;28;20032;-59
2022/12/22 08:33:14;;;;;;;30.17;22.13;;;;;;;9.01;100.00;100346.94;5091480;28;20052;-58
2022/12/22 08:35:42;;;;;;;29.13;21.30;;;;;;;9.01;100.00;100357.81;5091346;28;20051;-58
2022/12/22 08:38:11;;;;;;;26.08;19.42;;;;;;;8.99;100.00;100365.41;5092801;28;20044;-59
2022/12/22 08:40:39;;;;;;;24.88;18.40;;;;;;;9.00;100.00;100366.25;5092153;28;20048;-58
2022/12/22 08:43:08;;;;;;;27.60;17.85;;;;;;;9.03;100.00;100365.72;5092356;28;20070;-56
2022/12/22 08:45:36;;;;;;;25.75;18.20;;;;;;;9.04;100.00;100379.00;5094738;28;20044;-57
2022/12/22 08:48:04;;;;;;;28.42;20.67;;;;;;;9.03;100.00;100390.16;5093199;28;20452;-57
2022/12/22 08:50:31;;;;;;;22.30;15.75;;;;;;;9.07;100.00;100393.97;5093091;28;20131;-56
2022/12/22 08:53:07;;;;;;;26.85;18.17;;;;;;;9.12;100.00;100397.53;5093175;28;20480;-57
2022/12/22 08:55:55;;;;;;;25.70;18.88;;;;;;;9.11;100.00;100405.94;5090008;28;20036;-57
2022/12/22 08:58:24;;;;;;;27.25;20.30;;;;;;;9.09;100.00;100414.38;5096903;28;20040;-56
2022/12/22 09:00:52;;;;;;;28.95;19.85;;;;;;;9.07;100.00;100426.59;5095320;28;20040;-57
2022/12/22 09:03:19;;;;;;;23.35;17.48;;;;;;;9.06;100.00;100422.22;5095980;28;20117;-59
2022/12/22 09:05:47;;;;;;;24.80;17.83;;;;;;;9.05;100.00;100424.13;5095612;28;20048;-54
2022/12/22 09:08:15;;;;;;;26.42;17.88;;;;;;;9.07;100.00;100421.97;5096383;28;20375;-57
2022/12/22 09:10:42;;;;;;;27.10;18.48;;;;;;;9.07;100.00;100430.13;5095971;28;20380;-53
2022/12/22 09:13:10;;;;;;;28.42;19.98;;;;;;;9.07;100.00;100437.47;5095762;28;20040;-57
2022/12/22 09:15:38;;;;;;;26.80;19.55;;;;;;;9.09;100.00;100443.44;5095660;28;20036;-53
2022/12/22 09:18:05;;;;;;;31.27;19.77;;;;;;;9.06;100.00;100454.84;5096254;28;20038;-56
2022/12/22 09:20:33;;;;;;;25.52;18.23;;;;;;;9.05;100.00;100453.22;5094591;28;20532;-53
2022/12/22 09:23:01;;;;;;;26.80;18.80;;;;;;;9.01;100.00;100455.63;5095805;28;20067;-55
2022/12/22 09:25:28;;;;;;;28.50;18.77;;;;;;;8.99;100.00;100457.00;5094611;28;20059;-56
2022/12/22 09:27:56;;;;;;;27.92;18.30;;;;;;;8.98;100.00;100458.91;5096423;28;20398;-52
2022/12/22 09:30:23;;;;;;;28.15;18.20;;;;;;;8.99;100.00;100462.41;5095684;28;20409;-52
2022/12/22 09:32:53;;;;;;;25.67;18.25;;;;;;;9.00;100.00;100469.50;5094423;28;20048;-55
2022/12/22 09:35:20;;;;;;;26.50;18.17;;;;;;;9.00;100.00;100469.50;5095585;28;20370;-59
2022/12/22 09:37:48;;;;;;;28.38;19.23;;;;;;;9.00;100.00;100469.50;5095503;28;20040;-54
2022/12/22 09:40:20;;;;;;;27.55;18.25;;;;;;;9.02;100.00;100467.31;5095503;28;20044;-55
2022/12/22 09:42:48;;;;;;;27.00;18.83;;;;;;;9.03;100.00;100477.13;5095897;28;20040;-57
2022/12/22 09:45:19;;;;;;;25.77;17.83;;;;;;;9.02;100.00;100479.03;5095282;28;20066;-53
2022/12/22 09:47:52;;;;;;;23.77;17.48;;;;;;;9.02;100.00;100472.75;5095816;28;20123;-55
2022/12/22 09:50:22;;;;;;;24.10;17.83;;;;;;;9.03;100.00;100474.41;5094198;28;20099;-52
2022/12/22 09:53:02;;;;;;;24.30;17.02;;;;;;;9.03;100.00;100475.22;5093785;28;20418;-56
2022/12/22 09:55:46;;;;;;;27.25;18.30;;;;;;;9.06;100.00;100490.16;5094369;28;20070;-53
2022/12/22 09:58:25;;;;;;;27.85;19.33;;;;;;;9.07;100.00;100489.09;5094650;28;20050;-57
2022/12/22 10:01:13;;;;;;;25.83;17.92;;;;;;;9.07;100.00;100489.09;5081131;28;20131;-56
2022/12/22 10:04:03;;;;;;;28.52;18.90;;;;;;;9.07;100.00;100489.09;5092876;28;20036;-55
2022/12/22 10:06:49;;;;;;;27.05;18.90;;;;;;;9.06;100.00;100490.97;5094216;28;20494;-54
2022/12/22 10:09:22;;;;;;;25.45;17.90;;;;;;;9.06;100.00;100490.97;5082828;28;20051;-54
2022/12/22 10:12:15;;;;;;;25.98;17.55;;;;;;;9.09;100.00;100489.63;5079564;28;20059;-57
2022/12/22 10:14:48;;;;;;;27.90;20.10;;;;;;;9.10;100.00;100497.53;5095071;28;20028;-57
2022/12/22 10:17:32;;;;;;;29.05;19.05;;;;;;;9.13;100.00;100491.56;5095029;28;20058;-57
2022/12/22 10:20:18;;;;;;;25.15;17.48;;;;;;;9.16;100.00;100495.63;5095142;28;20486;-53
2022/12/22 10:22:51;;;;;;;27.05;18.35;;;;;;;9.16;100.00;100501.06;5081105;28;20126;-58
2022/12/22 10:25:45;;;;;;;30.13;18.55;;;;;;;9.13;100.00;100501.59;5094788;28;20388;-56
2022/12/22 10:28:48;;;;;;;28.65;17.95;;;;;;;9.10;100.00;100507.59;5056492;28;20055;-55
2022/12/22 10:31:25;;;;;;;24.05;15.05;;;;;;;9.15;100.00;100510.31;5093725;28;20040;-58
2022/12/22 10:33:56;;;;;;;25.08;16.63;;;;;;;9.16;100.00;100506.50;5092977;28;20093;-58
2022/12/22 10:36:31;;;;;;;24.50;16.85;;;;;;;9.21;100.00;100505.72;5093423;28;20490;-53
2022/12/22 10:39:09;;;;;;;24.88;16.05;;;;;;;9.21;100.00;100503.00;5073479;28;20047;-56
2022/12/22 10:41:43;;;;;;;22.67;14.73;;;;;;;9.24;100.00;100502.47;5080677;28;20044;-56
2022/12/22 10:44:20;;;;;;;24.02;15.73;;;;;;;9.20;100.00;100496.75;5092915;28;20040;-53
2022/12/22 10:46:50;;;;;;;26.17;15.23;;;;;;;9.21;100.00;100503.81;5093333;28;20052;-54
2022/12/22 10:49:18;;;;;;;23.92;15.05;;;;;;;9.18;100.00;100510.59;5093433;28;20071;-56
2022/12/22 10:51:49;;;;;;;25.65;14.77;;;;;;;9.19;100.00;100506.00;5094058;28;20536;-58
2022/12/22 10:54:43;;;;;;;27.00;14.95;;;;;;;9.26;100.00;100512.00;5076464;28;20036;-57
2022/12/22 10:57:15;;;;;;;26.70;15.43;;;;;;;9.32;100.00;100521.78;5080700;28;20044;-58
2022/12/22 11:00:09;;;;;;;22.55;14.60;;;;;;;9.28;100.00;100526.13;5094434;28;20106;-56
2022/12/22 11:02:37;;;;;;;22.80;13.77;;;;;;;9.26;100.00;100522.03;5075890;28;20105;-54
2022/12/22 11:05:10;;;;;;;21.33;13.27;;;;;;;9.24;100.00;100525.03;5094112;28;20047;-53
2022/12/22 11:07:40;;;;;;;20.60;12.32;;;;;;;9.24;100.00;100527.75;5094362;28;20079;-54
2022/12/22 11:10:25;;;;;;;19.40;12.30;;;;;;;9.30;100.00;100526.66;5093824;28;20040;-55
2022/12/22 11:13:01;;;;;;;17.77;11.05;;;;;;;9.27;100.00;100534.56;5092769;28;20058;-55
2022/12/22 11:15:44;;;;;;;21.90;13.43;;;;;;;9.22;100.00;100531.81;5093050;28;20056;-52
2022/12/22 11:18:27;;;;;;;18.33;11.95;;;;;;;9.20;100.00;100540.22;5092730;28;20036;-55
2022/12/22 11:21:13;;;;;;;18.85;11.63;;;;;;;9.22;100.00;100542.69;5095006;28;20051;-54
2022/12/22 11:23:50;;;;;;;18.58;11.48;;;;;;;9.29;100.00;100544.09;5097718;28;20036;-55
2022/12/22 11:26:42;;;;;;;19.45;11.10;;;;;;;9.38;100.00;100545.22;5115096;28;20102;-54
2022/12/22 11:29:51;;;;;;;20.08;9.55;;;;;;;9.38;100.00;100547.13;5095656;28;20036;-54
2022/12/22 11:32:35;;;;;;;17.42;10.27;;;;;;;9.35;100.00;100553.88;5094445;28;20149;-56
2022/12/22 11:35:07;;;;;;;18.27;11.40;;;;;;;9.34;100.00;100552.25;5095057;28;20043;-57
2022/12/22 11:37:48;;;;;;;17.60;11.63;;;;;;;9.31;100.00;100552.78;5091490;28;20483;-57
2022/12/22 11:40:34;;;;;;;19.77;11.02;;;;;;;9.33;100.00;100550.63;5093954;28;20036;-55
2022/12/22 11:43:22;;;;;;;18.08;11.25;;;;;;;9.31;100.00;100557.41;5093450;28;20492;-56
2022/12/22 11:45:58;;;;;;;17.17;11.73;;;;;;;9.41;100.00;100559.34;5092437;28;20061;-57
2022/12/22 11:49:07;;;;;;;18.33;11.18;;;;;;;9.41;100.00;100562.88;5095908;28;20043;-53
2022/12/22 11:51:37;;;;;;;23.38;11.95;;;;;;;9.52;100.00;100563.72;5033223;28;20037;-55
2022/12/22 11:54:36;;;;;;;17.85;10.30;;;;;;;9.50;100.00;100571.31;5034550;28;20045;-57
2022/12/22 11:57:27;;;;;;;18.17;9.75;;;;;;;9.48;100.00;100563.47;5079891;28;20143;-54
2022/12/22 12:00:04;;;;;;;18.17;9.38;;;;;;;9.42;100.00;100569.94;5077356;28;20107;-53
2022/12/22 12:03:11;;;;;;;18.50;10.10;;;;;;;9.45;100.00;100574.03;5093311;28;20050;-55
2022/12/22 12:05:51;;;;;;;21.95;11.35;;;;;;;9.39;100.00;100568.59;5097992;28;20122;-54
2022/12/22 12:08:40;;;;;;;18.20;10.65;;;;;;;9.35;100.00;100572.91;5091955;28;20052;-55
2022/12/22 12:11:20;;;;;;;21.65;14.45;;;;;;;9.37;100.00;100568.03;5081242;28;20044;-55
2022/12/22 12:14:09;;;;;;;19.90;13.25;;;;;;;9.38;100.00;100572.41;5058415;28;20077;-55
2022/12/22 12:17:13;;;;;;;22.90;16.50;;;;;;;9.34;100.00;100562.31;5091810;28;20048;-56
2022/12/22 12:20:02;;;;;;;23.83;16.95;;;;;;;9.27;100.00;100554.41;5058785;28;20032;-54
2022/12/22 12:22:45;;;;;;;21.17;15.07;;;;;;;9.31;100.00;100552.78;5091593;28;20080;-54
2022/12/22 12:25:21;;;;;;;23.55;16.85;;;;;;;9.32;100.00;100543.53;5091549;28;20074;-55
2022/12/22 12:28:18;;;;;;;21.38;15.65;;;;;;;9.39;100.00;100530.50;5097446;28;20036;-54
2022/12/22 12:30:55;;;;;;;18.98;12.38;;;;;;;9.43;100.00;100538.13;5097809;28;20123;-54
2022/12/22 12:33:46;;;;;;;21.73;16.13;;;;;;;9.43;100.00;100532.69;5081592;28;20048;-53
2022/12/22 12:36:16;;;;;;;22.48;15.65;;;;;;;9.35;100.00;100526.69;5098003;28;20460;-52
2022/12/22 12:38:56;;;;;;;24.20;15.82;;;;;;;9.39;100.00;100527.78;5099522;28;20074;-53
2022/12/22 12:41:57;;;;;;;22.95;14.60;;;;;;;9.37;100.00;100521.81;5099147;28;20044;-53
2022/12/22 12:44:27;;;;;;;22.83;14.18;;;;;;;9.33;100.00;100528.88;5098479;28;20040;-54
2022/12/22 12:47:03;;;;;;;20.92;14.50;;;;;;;9.35;100.00;100523.16;5098453;28;20398;-53
2022/12/22 12:49:33;;;;;;;21.20;14.70;;;;;;;9.38;100.00;100509.06;5098009;28;20055;-54
2022/12/22 12:52:11;;;;;;;20.45;14.13;;;;;;;9.41;100.00;100511.22;5097951;28;20418;-56
2022/12/22 12:54:41;;;;;;;23.70;15.52;;;;;;;9.43;100.00;100510.94;5098146;28;20754;-53
2022/12/22 12:57:22;;;;;;;21.92;14.20;;;;;;;9.43;100.00;100519.09;5098037;28;20051;-54
2022/12/22 12:59:52;;;;;;;14.55;8.50;;;;;;;9.51;100.00;100510.44;5098283;28;20052;-55
2022/12/22 13:02:34;;;;;;;23.13;14.57;;;;;;;9.53;100.00;100511.78;5097636;28;20052;-55
2022/12/22 13:05:11;;;;;;;17.30;9.13;;;;;;;9.64;100.00;100523.50;5099174;28;20119;-57
2022/12/22 13:08:10;;;;;;;17.50;12.20;;;;;;;9.59;100.00;100518.06;5099533;28;20379;-55
2022/12/22 13:10:52;;;;;;;18.15;13.38;;;;;;;9.58;100.00;100511.00;5100776;28;20036;-53
2022/12/22 13:13:25;;;;;;;18.73;12.73;;;;;;;9.51;100.00;100518.59;5099722;28;20075;-53
2022/12/22 13:15:59;;;;;;;17.65;12.73;;;;;;;9.46;100.00;100518.59;5099077;28;20111;-53
2022/12/22 13:18:29;;;;;;;20.48;13.05;;;;;;;9.44;100.00;100524.28;5097976;28;20454;-51
2022/12/22 13:20:58;;;;;;;18.02;12.73;;;;;;;9.50;100.00;100525.09;5099370;28;20119;-54
2022/12/22 13:24:03;;;;;;;21.10;14.80;;;;;;;9.43;100.00;100516.38;5097349;28;20052;-59
2022/12/22 13:26:53;;;;;;;18.65;14.30;;;;;;;9.34;100.00;100516.91;5091306;28;20113;-51
2022/12/22 13:29:21;;;;;;;18.42;13.82;;;;;;;9.33;100.00;100519.88;5097967;28;20569;-51
2022/12/22 13:31:56;;;;;;;18.85;13.82;;;;;;;9.33;100.00;100523.44;5098609;28;20097;-56
2022/12/22 13:34:35;;;;;;;19.33;13.07;;;;;;;9.34;100.00;100530.50;5081462;28;20036;-52
2022/12/22 13:37:24;;;;;;;17.42;11.00;;;;;;;9.37;100.00;100535.41;5093307;28;20047;-56
2022/12/22 13:40:25;;;;;;;18.08;11.05;;;;;;;9.41;100.00;100532.16;5096035;28;20044;-55
2022/12/22 13:43:01;;;;;;;18.33;11.75;;;;;;;9.43;100.00;100532.69;5093197;28;20119;-55
2022/12/22 13:45:31;;;;;;;17.95;12.95;;;;;;;9.48;100.00;100525.38;5094596;28;20036;-56
2022/12/22 13:48:01;;;;;;;18.50;12.30;;;;;;;9.45;100.00;100525.09;5093690;28;20044;-54
2022/12/22 13:50:33;;;;;;;20.20;12.90;;;;;;;9.39;100.00;100519.63;5088038;28;20036;-56
2022/12/22 13:53:02;;;;;;;20.02;12.73;;;;;;;9.36;100.00;100512.03;5095474;28;20495;-59
2022/12/22 13:55:30;;;;;;;21.17;13.27;;;;;;;9.38;100.00;100504.41;5093449;28;20071;-55
2022/12/22 13:58:05;;;;;;;16.23;11.27;;;;;;;9.44;100.00;100501.72;5093522;28;20040;-56
2022/12/22 14:00:33;;;;;;;15.90;10.10;;;;;;;9.46;100.00;100504.97;5094398;28;20040;-55
2022/12/22 14:03:04;;;;;;;13.73;9.05;;;;;;;9.49;100.00;100496.28;5094154;28;20491;-55
2022/12/22 14:05:35;;;;;;;13.25;9.45;;;;;;;9.51;100.00;100491.38;5094232;28;20073;-54
2022/12/22 14:08:09;;;;;;;16.30;10.45;;;;;;;9.61;100.00;100491.41;5094869;28;20513;-55
2022/12/22 14:10:41;;;;;;;13.40;8.65;;;;;;;9.64;100.00;100490.03;5093989;28;20482;-56
2022/12/22 14:13:15;;;;;;;12.30;6.20;;;;;;;9.71;100.00;100494.13;5075244;28;20040;-54
2022/12/22 14:15:43;;;;;;;10.55;5.28;;;;;;;9.77;100.00;100484.09;5091807;28;20040;-56
2022/12/22 14:18:16;;;;;;;16.13;9.88;;;;;;;9.74;100.00;100484.63;5093520;28;20072;-57
2022/12/22 14:20:46;;;;;;;18.40;10.68;;;;;;;9.68;100.00;100480.28;5092749;28;20089;-56
2022/12/22 14:23:25;;;;;;;18.95;10.13;;;;;;;9.62;100.00;100482.19;5076863;28;20040;-54
2022/12/22 14:25:55;;;;;;;16.27;10.45;;;;;;;9.58;100.00;100483.78;5093875;28;20123;-56
2022/12/22 14:28:26;;;;;;;15.10;9.38;;;;;;;9.54;100.00;100479.97;5093335;28;20047;-56
2022/12/22 14:30:58;;;;;;;12.23;8.60;;;;;;;9.50;100.00;100474.25;5092516;28;20058;-51
2022/12/22 14:33:31;;;;;;;12.43;7.55;;;;;;;9.53;100.00;100467.47;5094249;28;20051;-56
2022/12/22 14:36:23;;;;;;;13.93;7.32;;;;;;;9.53;100.00;100468.28;5094951;28;20130;-55
2022/12/22 14:38:56;;;;;;;11.60;6.60;;;;;;;9.53;100.00;100462.03;5092655;28;20078;-55
2022/12/22 14:41:53;;;;;;;13.38;6.18;;;;;;;9.66;100.00;100456.03;5078527;28;20040;-52
2022/12/22 14:44:21;;;;;;;13.27;6.97;;;;;;;9.64;100.00;100449.25;5079867;28;20040;-55
2022/12/22 14:47:18;;;;;;;11.32;6.78;;;;;;;9.60;100.00;100441.63;5094575;28;20119;-57
2022/12/22 14:49:58;;;;;;;12.38;7.72;;;;;;;9.56;100.00;100439.72;5091438;28;20044;-57
2022/12/22 14:52:50;;;;;;;12.85;7.43;;;;;;;9.55;100.00;100438.09;5092582;28;20078;-50
2022/12/22 14:55:23;;;;;;;13.98;8.68;;;;;;;9.52;100.00;100441.34;5099395;28;20040;-55
2022/12/22 14:57:54;;;;;;;12.63;8.90;;;;;;;9.48;100.00;100449.25;5093276;28;20032;-54
2022/12/22 15:00:21;;;;;;;14.88;7.57;;;;;;;9.46;100.00;100435.09;5074213;28;20049;-56
2022/12/22 15:03:01;;;;;;;12.63;8.15;;;;;;;9.51;100.00;100428.84;5086903;28;20063;-53
2022/12/22 15:05:36;;;;;;;16.00;9.35;;;;;;;9.47;100.00;100433.19;5092643;28;20048;-58
2022/12/22 15:08:05;;;;;;;13.52;8.30;;;;;;;9.52;100.00;100439.44;5092544;28;20397;-57
2022/12/22 15:10:43;;;;;;;14.00;8.57;;;;;;;9.50;100.00;100435.34;5094214;28;20497;-58
2022/12/22 15:13:21;;;;;;;12.50;7.68;;;;;;;9.47;100.00;100438.63;5094489;28;20052;-55
2022/12/22 15:15:50;;;;;;;12.45;7.35;;;;;;;9.47;100.00;100435.91;5090712;28;20405;-57
2022/12/22 15:18:22;;;;;;;14.55;8.40;;;;;;;9.45;100.00;100428.00;5091483;28;20456;-58
2022/12/22 15:20:50;;;;;;;16.52;7.82;;;;;;;9.53;100.00;100427.47;5092672;28;20102;-56